Station Historical Data
Daily Summary for July 19, 2012 Units:  Both    English   Metric
« Previous Day
Next Day »
Daily Weekly Monthly Yearly Custom
  High: Low: Average:
Temperature: 91.0 °F /  32.8 °C 70.1 °F /  21.2 °C 78.9 °F /  26.1 °C
Dew Point: 79.8 °F /  26.6 °C 68.0 °F /  20 °C 73.3 °F /  22.9 °C
Humidity: 93% 65% 84%
Wind Speed: 10.0mph /  16.1km/h - 3.4mph /  5.5km/h
Wind Gust: 12.0mph /  19.3km/h - -
Wind- - South
Pressure: 30.03 in /  1016.8 hPa 29.86 in /  1011.1 hPa -
Precipitation: 0.01 in /  0.25 mm    
Historical Graphs
 
 
Tabular Data for July 19, 2012
Time Temperature Dew Point Pressure Wind Wind Speed Wind Gust Humidity Rainfall Rate (Hourly) Conditions
00:00 72.0 °F /  22.2 °C 69.6 °F /  20.9 °C 29.95in /  1014.1hPa West 1.0mph /  1.6km/h 2.0mph /  3.2km/h 92% 0.00in /  0mm
00:01 72.0 °F /  22.2 °C 69.6 °F /  20.9 °C 29.95in /  1014.1hPa West 2.0mph /  3.2km/h 2.0mph /  3.2km/h 92% 0.00in /  0mm
00:02 71.9 °F /  22.2 °C 69.4 °F /  20.8 °C 29.95in /  1014.1hPa WNW 2.0mph /  3.2km/h 3.0mph /  4.8km/h 92% 0.00in /  0mm
00:07 71.8 °F /  22.1 °C 69.3 °F /  20.7 °C 29.96in /  1014.4hPa WNW 5.0mph /  8km/h 5.0mph /  8km/h 92% 0.00in /  0mm
00:12 71.8 °F /  22.1 °C 69.3 °F /  20.7 °C 29.95in /  1014.1hPa WSW 1.0mph /  1.6km/h 3.0mph /  4.8km/h 92% 0.00in /  0mm
00:17 71.8 °F /  22.1 °C 69.3 °F /  20.7 °C 29.96in /  1014.4hPa SSW 1.0mph /  1.6km/h 2.0mph /  3.2km/h 92% 0.00in /  0mm
00:22 71.8 °F /  22.1 °C 69.3 °F /  20.7 °C 29.96in /  1014.4hPa SSW 1.0mph /  1.6km/h 2.0mph /  3.2km/h 92% 0.00in /  0mm
00:27 71.7 °F /  22.1 °C 69.3 °F /  20.7 °C 29.96in /  1014.4hPa WSW 1.0mph /  1.6km/h 1.0mph /  1.6km/h 92% 0.00in /  0mm
00:32 71.6 °F /  22 °C 69.2 °F /  20.7 °C 29.96in /  1014.4hPa WSW 1.0mph /  1.6km/h 1.0mph /  1.6km/h 92% 0.00in /  0mm
00:37 71.6 °F /  22 °C 69.2 °F /  20.7 °C 29.96in /  1014.4hPa West 1.0mph /  1.6km/h 2.0mph /  3.2km/h 92% 0.00in /  0mm
00:43 71.7 °F /  22.1 °C 69.3 °F /  20.7 °C 29.96in /  1014.4hPa WSW 3.0mph /  4.8km/h 4.0mph /  6.4km/h 92% 0.00in /  0mm
00:48 71.7 °F /  22.1 °C 69.3 °F /  20.7 °C 29.95in /  1014.1hPa SW 1.0mph /  1.6km/h 4.0mph /  6.4km/h 92% 0.00in /  0mm
00:53 71.6 °F /  22 °C 69.2 °F /  20.7 °C 29.95in /  1014.1hPa Calm   2.0mph /  3.2km/h 92% 0.00in /  0mm
00:58 71.6 °F /  22 °C 69.2 °F /  20.7 °C 29.95in /  1014.1hPa SSW 1.0mph /  1.6km/h 1.0mph /  1.6km/h 92% 0.00in /  0mm
01:03 71.5 °F /  21.9 °C 69.1 °F /  20.6 °C 29.95in /  1014.1hPa SE 2.0mph /  3.2km/h 2.0mph /  3.2km/h 92% 0.00in /  0mm
01:08 71.5 °F /  21.9 °C 69.1 °F /  20.6 °C 29.95in /  1014.1hPa ESE 2.0mph /  3.2km/h 3.0mph /  4.8km/h 92% 0.00in /  0mm
01:13 71.4 °F /  21.9 °C 69.0 °F /  20.6 °C 29.95in /  1014.1hPa SSE 1.0mph /  1.6km/h 2.0mph /  3.2km/h 92% 0.00in /  0mm
01:18 71.4 °F /  21.9 °C 69.0 °F /  20.6 °C 29.95in /  1014.1hPa SE 2.0mph /  3.2km/h 2.0mph /  3.2km/h 92% 0.00in /  0mm
01:23 71.4 °F /  21.9 °C 69.0 °F /  20.6 °C 29.95in /  1014.1hPa SE 3.0mph /  4.8km/h 3.0mph /  4.8km/h 92% 0.00in /  0mm
01:28 71.4 °F /  21.9 °C 69.0 °F /  20.6 °C 29.95in /  1014.1hPa East 2.0mph /  3.2km/h 2.0mph /  3.2km/h 92% 0.00in /  0mm
01:33 71.3 °F /  21.8 °C 68.9 °F /  20.5 °C 29.95in /  1014.1hPa East 2.0mph /  3.2km/h 2.0mph /  3.2km/h 92% 0.00in /  0mm
01:38 71.3 °F /  21.8 °C 68.9 °F /  20.5 °C 29.95in /  1014.1hPa Calm   1.0mph /  1.6km/h 92% 0.00in /  0mm
01:43 71.3 °F /  21.8 °C 68.9 °F /  20.5 °C 29.95in /  1014.1hPa ESE 1.0mph /  1.6km/h 2.0mph /  3.2km/h 92% 0.00in /  0mm
01:48 71.2 °F /  21.8 °C 68.8 °F /  20.4 °C 29.95in /  1014.1hPa East 1.0mph /  1.6km/h 1.0mph /  1.6km/h 92% 0.00in /  0mm
01:53 71.2 °F /  21.8 °C 68.8 °F /  20.4 °C 29.95in /  1014.1hPa ESE 3.0mph /  4.8km/h 3.0mph /  4.8km/h 92% 0.00in /  0mm
01:58 71.1 °F /  21.7 °C 68.7 °F /  20.4 °C 29.95in /  1014.1hPa SE 4.0mph /  6.4km/h 4.0mph /  6.4km/h 92% 0.00in /  0mm
02:03 71.1 °F /  21.7 °C 68.7 °F /  20.4 °C 29.94in /  1013.8hPa SE 4.0mph /  6.4km/h 6.0mph /  9.7km/h 92% 0.00in /  0mm
02:08 71.1 °F /  21.7 °C 68.7 °F /  20.4 °C 29.94in /  1013.8hPa SE 4.0mph /  6.4km/h 5.0mph /  8km/h 92% 0.00in /  0mm
02:13 71.2 °F /  21.8 °C 68.8 °F /  20.4 °C 29.95in /  1014.1hPa Calm   4.0mph /  6.4km/h 92% 0.00in /  0mm
02:18 71.1 °F /  21.7 °C 68.7 °F /  20.4 °C 29.95in /  1014.1hPa WNW 1.0mph /  1.6km/h 3.0mph /  4.8km/h 92% 0.00in /  0mm
02:23 71.0 °F /  21.7 °C 68.6 °F /  20.3 °C 29.95in /  1014.1hPa Calm   1.0mph /  1.6km/h 92% 0.00in /  0mm
02:28 71.0 °F /  21.7 °C 68.6 °F /  20.3 °C 29.96in /  1014.4hPa Calm   1.0mph /  1.6km/h 92% 0.00in /  0mm
02:33 71.0 °F /  21.7 °C 68.6 °F /  20.3 °C 29.95in /  1014.1hPa Calm     92% 0.00in /  0mm
02:38 70.9 °F /  21.6 °C 68.5 °F /  20.3 °C 29.96in /  1014.4hPa SSE 1.0mph /  1.6km/h 1.0mph /  1.6km/h 92% 0.00in /  0mm
02:43 70.8 °F /  21.6 °C 68.4 °F /  20.2 °C 29.96in /  1014.4hPa SSE 1.0mph /  1.6km/h 2.0mph /  3.2km/h 92% 0.00in /  0mm
02:48 70.7 °F /  21.5 °C 68.3 °F /  20.2 °C 29.96in /  1014.4hPa WSW 2.0mph /  3.2km/h 2.0mph /  3.2km/h 92% 0.00in /  0mm
02:53 70.8 °F /  21.6 °C 68.4 °F /  20.2 °C 29.95in /  1014.1hPa South 2.0mph /  3.2km/h 2.0mph /  3.2km/h 92% 0.00in /  0mm
02:58 70.9 °F /  21.6 °C 68.5 °F /  20.3 °C 29.95in /  1014.1hPa South 2.0mph /  3.2km/h 2.0mph /  3.2km/h 92% 0.00in /  0mm
03:03 71.1 °F /  21.7 °C 68.7 °F /  20.4 °C 29.94in /  1013.8hPa South 2.0mph /  3.2km/h 3.0mph /  4.8km/h 92% 0.00in /  0mm
03:08 71.2 °F /  21.8 °C 68.8 °F /  20.4 °C 29.94in /  1013.8hPa South 5.0mph /  8km/h 5.0mph /  8km/h 92% 0.00in /  0mm
03:13 71.4 °F /  21.9 °C 69.0 °F /  20.6 °C 29.94in /  1013.8hPa SW 5.0mph /  8km/h 7.0mph /  11.3km/h 92% 0.00in /  0mm
03:18 71.5 °F /  21.9 °C 69.1 °F /  20.6 °C 29.95in /  1014.1hPa WSW 2.0mph /  3.2km/h 4.0mph /  6.4km/h 92% 0.00in /  0mm
03:23 71.6 °F /  22 °C 69.2 °F /  20.7 °C 29.94in /  1013.8hPa SW 5.0mph /  8km/h 6.0mph /  9.7km/h 92% 0.00in /  0mm
03:28 71.6 °F /  22 °C 69.2 °F /  20.7 °C 29.94in /  1013.8hPa South 2.0mph /  3.2km/h 5.0mph /  8km/h 92% 0.00in /  0mm
03:33 71.5 °F /  21.9 °C 69.1 °F /  20.6 °C 29.94in /  1013.8hPa SSW 2.0mph /  3.2km/h 4.0mph /  6.4km/h 92% 0.00in /  0mm
03:38 71.4 °F /  21.9 °C 69.0 °F /  20.6 °C 29.94in /  1013.8hPa SSW 2.0mph /  3.2km/h 4.0mph /  6.4km/h 92% 0.00in /  0mm
03:43 71.4 °F /  21.9 °C 69.0 °F /  20.6 °C 29.94in /  1013.8hPa SW 2.0mph /  3.2km/h 3.0mph /  4.8km/h 92% 0.00in /  0mm
03:48 71.3 °F /  21.8 °C 68.9 °F /  20.5 °C 29.94in /  1013.8hPa West 1.0mph /  1.6km/h 2.0mph /  3.2km/h 92% 0.00in /  0mm
03:54 71.2 °F /  21.8 °C 68.8 °F /  20.4 °C 29.96in /  1014.4hPa NNW 3.0mph /  4.8km/h 5.0mph /  8km/h 92% 0.00in /  0mm
03:59 71.3 °F /  21.8 °C 68.9 °F /  20.5 °C 29.96in /  1014.4hPa Calm   3.0mph /  4.8km/h 92% 0.00in /  0mm
04:04 71.2 °F /  21.8 °C 68.8 °F /  20.4 °C 29.95in /  1014.1hPa Calm     92% 0.00in /  0mm
04:09 71.2 °F /  21.8 °C 68.8 °F /  20.4 °C 29.95in /  1014.1hPa WNW 1.0mph /  1.6km/h 1.0mph /  1.6km/h 92% 0.00in /  0mm
04:14 71.2 °F /  21.8 °C 68.8 °F /  20.4 °C 29.95in /  1014.1hPa SSW 1.0mph /  1.6km/h 1.0mph /  1.6km/h 92% 0.00in /  0mm
04:19 71.1 °F /  21.7 °C 68.7 °F /  20.4 °C 29.95in /  1014.1hPa Calm   2.0mph /  3.2km/h 92% 0.00in /  0mm
04:24 71.1 °F /  21.7 °C 68.7 °F /  20.4 °C 29.95in /  1014.1hPa SE 1.0mph /  1.6km/h 1.0mph /  1.6km/h 92% 0.00in /  0mm
04:29 71.0 °F /  21.7 °C 68.6 °F /  20.3 °C 29.95in /  1014.1hPa SE 1.0mph /  1.6km/h 1.0mph /  1.6km/h 92% 0.00in /  0mm
04:34 71.0 °F /  21.7 °C 68.6 °F /  20.3 °C 29.96in /  1014.4hPa ENE 1.0mph /  1.6km/h 3.0mph /  4.8km/h 92% 0.00in /  0mm
04:39 70.9 °F /  21.6 °C 68.5 °F /  20.3 °C 29.96in /  1014.4hPa Calm   1.0mph /  1.6km/h 92% 0.00in /  0mm
04:44 70.7 °F /  21.5 °C 68.6 °F /  20.3 °C 29.97in /  1014.8hPa ENE 1.0mph /  1.6km/h 1.0mph /  1.6km/h 93% 0.00in /  0mm
04:49 70.5 °F /  21.4 °C 68.4 °F /  20.2 °C 29.97in /  1014.8hPa Calm   1.0mph /  1.6km/h 93% 0.00in /  0mm
04:54 70.5 °F /  21.4 °C 68.1 °F /  20.1 °C 29.97in /  1014.8hPa SSW 1.0mph /  1.6km/h 1.0mph /  1.6km/h 92% 0.00in /  0mm
04:59 70.4 °F /  21.3 °C 68.3 °F /  20.2 °C 29.96in /  1014.4hPa SSE 1.0mph /  1.6km/h 3.0mph /  4.8km/h 93% 0.00in /  0mm
05:04 70.5 °F /  21.4 °C 68.1 °F /  20.1 °C 29.96in /  1014.4hPa SSE 1.0mph /  1.6km/h 2.0mph /  3.2km/h 92% 0.00in /  0mm
05:09 70.5 °F /  21.4 °C 68.1 °F /  20.1 °C 29.96in /  1014.4hPa Calm   1.0mph /  1.6km/h 92% 0.00in /  0mm
05:14 70.4 °F /  21.3 °C 68.3 °F /  20.2 °C 29.97in /  1014.8hPa Calm     93% 0.00in /  0mm
05:19 70.3 °F /  21.3 °C 68.2 °F /  20.1 °C 29.97in /  1014.8hPa Calm   1.0mph /  1.6km/h 93% 0.00in /  0mm
05:24 70.3 °F /  21.3 °C 68.2 °F /  20.1 °C 29.97in /  1014.8hPa ESE 1.0mph /  1.6km/h 1.0mph /  1.6km/h 93% 0.00in /  0mm
05:29 70.2 °F /  21.2 °C 68.1 °F /  20.1 °C 29.97in /  1014.8hPa SE 1.0mph /  1.6km/h 2.0mph /  3.2km/h 93% 0.00in /  0mm
05:34 70.2 °F /  21.2 °C 68.1 °F /  20.1 °C 29.97in /  1014.8hPa ESE 3.0mph /  4.8km/h 4.0mph /  6.4km/h 93% 0.00in /  0mm
05:39 70.1 °F /  21.2 °C 68.0 °F /  20 °C 29.97in /  1014.8hPa ESE 4.0mph /  6.4km/h 4.0mph /  6.4km/h 93% 0.00in /  0mm
05:44 70.2 °F /  21.2 °C 68.1 °F /  20.1 °C 29.98in /  1015.1hPa ESE 2.0mph /  3.2km/h 4.0mph /  6.4km/h 93% 0.00in /  0mm
05:49 70.2 °F /  21.2 °C 68.1 °F /  20.1 °C 29.98in /  1015.1hPa Calm   2.0mph /  3.2km/h 93% 0.00in /  0mm
05:54 70.1 °F /  21.2 °C 68.0 °F /  20 °C 29.97in /  1014.8hPa ESE 3.0mph /  4.8km/h 4.0mph /  6.4km/h 93% 0.00in /  0mm
05:59 70.2 °F /  21.2 °C 68.1 °F /  20.1 °C 29.97in /  1014.8hPa ESE 3.0mph /  4.8km/h 4.0mph /  6.4km/h 93% 0.00in /  0mm
06:04 70.2 °F /  21.2 °C 68.1 °F /  20.1 °C 29.98in /  1015.1hPa ESE 2.0mph /  3.2km/h 3.0mph /  4.8km/h 93% 0.00in /  0mm
06:09 70.2 °F /  21.2 °C 68.1 °F /  20.1 °C 29.98in /  1015.1hPa SE 1.0mph /  1.6km/h 2.0mph /  3.2km/h 93% 0.00in /  0mm
06:14 70.3 °F /  21.3 °C 68.2 °F /  20.1 °C 29.98in /  1015.1hPa ESE 1.0mph /  1.6km/h 2.0mph /  3.2km/h 93% 0.00in /  0mm
06:20 70.3 °F /  21.3 °C 68.2 °F /  20.1 °C 29.98in /  1015.1hPa ESE 1.0mph /  1.6km/h 2.0mph /  3.2km/h 93% 0.00in /  0mm
06:25 70.3 °F /  21.3 °C 68.2 °F /  20.1 °C 29.98in /  1015.1hPa ESE 1.0mph /  1.6km/h 2.0mph /  3.2km/h 93% 0.00in /  0mm
06:30 70.4 °F /  21.3 °C 68.3 °F /  20.2 °C 29.98in /  1015.1hPa Calm   2.0mph /  3.2km/h 93% 0.00in /  0mm
06:35 70.4 °F /  21.3 °C 68.3 °F /  20.2 °C 29.98in /  1015.1hPa SE 1.0mph /  1.6km/h 1.0mph /  1.6km/h 93% 0.00in /  0mm
06:40 70.5 °F /  21.4 °C 68.4 °F /  20.2 °C 29.99in /  1015.5hPa Calm   1.0mph /  1.6km/h 93% 0.00in /  0mm
06:45 70.5 °F /  21.4 °C 68.4 °F /  20.2 °C 29.99in /  1015.5hPa Calm   2.0mph /  3.2km/h 93% 0.00in /  0mm
06:50 70.5 °F /  21.4 °C 68.4 °F /  20.2 °C 29.99in /  1015.5hPa Calm     93% 0.00in /  0mm
06:55 70.6 °F /  21.4 °C 68.5 °F /  20.3 °C 29.99in /  1015.5hPa SSW 2.0mph /  3.2km/h 2.0mph /  3.2km/h 93% 0.00in /  0mm
07:00 70.7 °F /  21.5 °C 68.6 °F /  20.3 °C 29.99in /  1015.5hPa South 2.0mph /  3.2km/h 2.0mph /  3.2km/h 93% 0.00in /  0mm
07:05 70.7 °F /  21.5 °C 68.6 °F /  20.3 °C 29.99in /  1015.5hPa South 3.0mph /  4.8km/h 4.0mph /  6.4km/h 93% 0.00in /  0mm
07:10 70.8 °F /  21.6 °C 68.7 °F /  20.4 °C 30.00in /  1015.8hPa SSW 2.0mph /  3.2km/h 3.0mph /  4.8km/h 93% 0.00in /  0mm
07:15 70.8 °F /  21.6 °C 68.7 °F /  20.4 °C 29.99in /  1015.5hPa SW 2.0mph /  3.2km/h 3.0mph /  4.8km/h 93% 0.00in /  0mm
07:20 70.8 °F /  21.6 °C 68.7 °F /  20.4 °C 29.99in /  1015.5hPa SSW 1.0mph /  1.6km/h 3.0mph /  4.8km/h 93% 0.00in /  0mm
07:25 70.9 °F /  21.6 °C 68.8 °F /  20.4 °C 29.99in /  1015.5hPa SE 1.0mph /  1.6km/h 2.0mph /  3.2km/h 93% 0.00in /  0mm
07:30 70.9 °F /  21.6 °C 68.8 °F /  20.4 °C 29.99in /  1015.5hPa SW 3.0mph /  4.8km/h 4.0mph /  6.4km/h 93% 0.00in /  0mm
07:35 70.9 °F /  21.6 °C 68.8 °F /  20.4 °C 29.99in /  1015.5hPa SE 4.0mph /  6.4km/h 4.0mph /  6.4km/h 93% 0.00in /  0mm
07:40 71.0 °F /  21.7 °C 68.9 °F /  20.5 °C 29.99in /  1015.5hPa SSW 4.0mph /  6.4km/h 5.0mph /  8km/h 93% 0.00in /  0mm
07:45 71.1 °F /  21.7 °C 69.0 °F /  20.6 °C 29.99in /  1015.5hPa SE 2.0mph /  3.2km/h 4.0mph /  6.4km/h 93% 0.00in /  0mm
07:50 71.1 °F /  21.7 °C 68.7 °F /  20.4 °C 30.00in /  1015.8hPa SSE 3.0mph /  4.8km/h 5.0mph /  8km/h 92% 0.00in /  0mm
07:55 71.2 °F /  21.8 °C 69.1 °F /  20.6 °C 30.00in /  1015.8hPa SSW 3.0mph /  4.8km/h 4.0mph /  6.4km/h 93% 0.00in /  0mm
08:00 71.2 °F /  21.8 °C 69.1 °F /  20.6 °C 30.00in /  1015.8hPa SSE 5.0mph /  8km/h 5.0mph /  8km/h 93% 0.00in /  0mm
08:05 71.3 °F /  21.8 °C 69.2 °F /  20.7 °C 30.00in /  1015.8hPa SSW 3.0mph /  4.8km/h 4.0mph /  6.4km/h 93% 0.00in /  0mm
08:10 71.3 °F /  21.8 °C 68.9 °F /  20.5 °C 30.00in /  1015.8hPa SSE 3.0mph /  4.8km/h 3.0mph /  4.8km/h 92% 0.00in /  0mm
08:15 71.4 °F /  21.9 °C 69.0 °F /  20.6 °C 30.00in /  1015.8hPa SE 4.0mph /  6.4km/h 5.0mph /  8km/h 92% 0.00in /  0mm
08:20 71.5 °F /  21.9 °C 69.1 °F /  20.6 °C 30.00in /  1015.8hPa SE 4.0mph /  6.4km/h 5.0mph /  8km/h 92% 0.00in /  0mm
08:25 71.6 °F /  22 °C 69.2 °F /  20.7 °C 30.00in /  1015.8hPa SW 2.0mph /  3.2km/h 3.0mph /  4.8km/h 92% 0.00in /  0mm
08:30 71.5 °F /  21.9 °C 69.1 °F /  20.6 °C 30.01in /  1016.1hPa South 3.0mph /  4.8km/h 5.0mph /  8km/h 92% 0.00in /  0mm
08:35 71.6 °F /  22 °C 69.2 °F /  20.7 °C 30.01in /  1016.1hPa SW 4.0mph /  6.4km/h 5.0mph /  8km/h 92% 0.00in /  0mm
08:40 71.7 °F /  22.1 °C 69.3 °F /  20.7 °C 30.01in /  1016.1hPa SW 2.0mph /  3.2km/h 4.0mph /  6.4km/h 92% 0.00in /  0mm
08:45 71.7 °F /  22.1 °C 69.3 °F /  20.7 °C 30.01in /  1016.1hPa SW 1.0mph /  1.6km/h 5.0mph /  8km/h 92% 0.00in /  0mm
08:50 71.8 °F /  22.1 °C 69.3 °F /  20.7 °C 30.02in /  1016.5hPa SW 4.0mph /  6.4km/h 6.0mph /  9.7km/h 92% 0.00in /  0mm
08:56 71.8 °F /  22.1 °C 69.3 °F /  20.7 °C 30.02in /  1016.5hPa SE 4.0mph /  6.4km/h 6.0mph /  9.7km/h 92% 0.00in /  0mm
09:01 71.9 °F /  22.2 °C 69.4 °F /  20.8 °C 30.03in /  1016.8hPa SW 2.0mph /  3.2km/h 5.0mph /  8km/h 92% 0.00in /  0mm
09:06 71.9 °F /  22.2 °C 69.4 °F /  20.8 °C 30.02in /  1016.5hPa SSW 5.0mph /  8km/h 5.0mph /  8km/h 92% 0.00in /  0mm
09:11 71.9 °F /  22.2 °C 69.4 °F /  20.8 °C 30.03in /  1016.8hPa SW 4.0mph /  6.4km/h 6.0mph /  9.7km/h 92% 0.00in /  0mm
09:16 72.0 °F /  22.2 °C 69.6 °F /  20.9 °C 30.02in /  1016.5hPa SW 5.0mph /  8km/h 6.0mph /  9.7km/h 92% 0.00in /  0mm
09:21 72.2 °F /  22.3 °C 69.8 °F /  21 °C 30.02in /  1016.5hPa SSW 2.0mph /  3.2km/h 3.0mph /  4.8km/h 92% 0.00in /  0mm
09:26 72.3 °F /  22.4 °C 69.8 °F /  21 °C 30.02in /  1016.5hPa SSE 2.0mph /  3.2km/h 4.0mph /  6.4km/h 92% 0.00in /  0mm
09:31 72.4 °F /  22.4 °C 69.9 °F /  21.1 °C 30.02in /  1016.5hPa SSW 4.0mph /  6.4km/h 5.0mph /  8km/h 92% 0.00in /  0mm
09:36 72.5 °F /  22.5 °C 70.1 °F /  21.2 °C 30.02in /  1016.5hPa SSE 2.0mph /  3.2km/h 3.0mph /  4.8km/h 92% 0.00in /  0mm
09:41 72.7 °F /  22.6 °C 70.2 °F /  21.2 °C 30.02in /  1016.5hPa SSE 4.0mph /  6.4km/h 4.0mph /  6.4km/h 92% 0.00in /  0mm
09:46 72.9 °F /  22.7 °C 70.4 °F /  21.3 °C 30.02in /  1016.5hPa SE 6.0mph /  9.7km/h 7.0mph /  11.3km/h 92% 0.00in /  0mm
09:52 73.1 °F /  22.8 °C 70.6 °F /  21.4 °C 30.03in /  1016.8hPa SE 3.0mph /  4.8km/h 6.0mph /  9.7km/h 92% 0.00in /  0mm
09:57 73.2 °F /  22.9 °C 71.1 °F /  21.7 °C 30.03in /  1016.8hPa SSW 2.0mph /  3.2km/h 6.0mph /  9.7km/h 93% 0.00in /  0mm
10:02 73.6 °F /  23.1 °C 71.1 °F /  21.7 °C 30.03in /  1016.8hPa SW 4.0mph /  6.4km/h 5.0mph /  8km/h 92% 0.00in /  0mm
10:07 73.9 °F /  23.3 °C 71.8 °F /  22.1 °C 30.02in /  1016.5hPa SE 3.0mph /  4.8km/h 3.0mph /  4.8km/h 93% 0.00in /  0mm
10:12 74.3 °F /  23.5 °C 71.8 °F /  22.1 °C 30.02in /  1016.5hPa SW 4.0mph /  6.4km/h 5.0mph /  8km/h 92% 0.00in /  0mm
10:17 74.5 °F /  23.6 °C 72.3 °F /  22.4 °C 30.02in /  1016.5hPa West 4.0mph /  6.4km/h 6.0mph /  9.7km/h 93% 0.00in /  0mm
10:22 74.9 °F /  23.8 °C 72.4 °F /  22.4 °C 30.02in /  1016.5hPa SSE 4.0mph /  6.4km/h 7.0mph /  11.3km/h 92% 0.00in /  0mm
10:27 75.3 °F /  24.1 °C 72.8 °F /  22.7 °C 30.02in /  1016.5hPa SW 4.0mph /  6.4km/h 5.0mph /  8km/h 92% 0.00in /  0mm
10:32 75.6 °F /  24.2 °C 73.1 °F /  22.8 °C 30.02in /  1016.5hPa SSW 4.0mph /  6.4km/h 5.0mph /  8km/h 92% 0.00in /  0mm
10:37 76.1 °F /  24.5 °C 73.3 °F /  22.9 °C 30.02in /  1016.5hPa SSW 2.0mph /  3.2km/h 9.0mph /  14.5km/h 91% 0.00in /  0mm
10:42 76.3 °F /  24.6 °C 73.2 °F /  22.9 °C 30.02in /  1016.5hPa SSE 5.0mph /  8km/h 6.0mph /  9.7km/h 90% 0.00in /  0mm
10:47 76.7 °F /  24.8 °C 73.6 °F /  23.1 °C 30.02in /  1016.5hPa South 2.0mph /  3.2km/h 6.0mph /  9.7km/h 90% 0.00in /  0mm
10:52 77.2 °F /  25.1 °C 73.4 °F /  23 °C 30.02in /  1016.5hPa SE 5.0mph /  8km/h 6.0mph /  9.7km/h 88% 0.00in /  0mm
10:57 77.3 °F /  25.2 °C 73.8 °F /  23.2 °C 30.02in /  1016.5hPa SSE 5.0mph /  8km/h 7.0mph /  11.3km/h 89% 0.00in /  0mm
11:02 77.7 °F /  25.4 °C 74.5 °F /  23.6 °C 30.02in /  1016.5hPa SSE 3.0mph /  4.8km/h 6.0mph /  9.7km/h 90% 0.00in /  0mm
11:07 78.1 °F /  25.6 °C 73.9 °F /  23.3 °C 30.02in /  1016.5hPa SSE 2.0mph /  3.2km/h 7.0mph /  11.3km/h 87% 0.00in /  0mm
11:12 78.2 °F /  25.7 °C 74.0 °F /  23.3 °C 30.02in /  1016.5hPa SSW 4.0mph /  6.4km/h 6.0mph /  9.7km/h 87% 0.00in /  0mm
11:17 78.5 °F /  25.8 °C 74.3 °F /  23.5 °C 30.03in /  1016.8hPa SE 4.0mph /  6.4km/h 7.0mph /  11.3km/h 87% 0.00in /  0mm
11:22 78.5 °F /  25.8 °C 74.3 °F /  23.5 °C 30.02in /  1016.5hPa ESE 5.0mph /  8km/h 7.0mph /  11.3km/h 87% 0.00in /  0mm
11:27 78.6 °F /  25.9 °C 74.4 °F /  23.6 °C 30.02in /  1016.5hPa SE 5.0mph /  8km/h 5.0mph /  8km/h 87% 0.00in /  0mm
11:32 78.5 °F /  25.8 °C 74.7 °F /  23.7 °C 30.03in /  1016.8hPa South 3.0mph /  4.8km/h 7.0mph /  11.3km/h 88% 0.00in /  0mm
11:37 78.6 °F /  25.9 °C 74.4 °F /  23.6 °C 30.03in /  1016.8hPa SE 4.0mph /  6.4km/h 6.0mph /  9.7km/h 87% 0.00in /  0mm
11:42 79.1 °F /  26.2 °C 75.2 °F /  24 °C 30.03in /  1016.8hPa SE 4.0mph /  6.4km/h 5.0mph /  8km/h 88% 0.00in /  0mm
11:47 78.8 °F /  26 °C 74.6 °F /  23.7 °C 30.03in /  1016.8hPa SSE 6.0mph /  9.7km/h 9.0mph /  14.5km/h 87% 0.00in /  0mm
11:52 79.3 °F /  26.3 °C 75.1 °F /  23.9 °C 30.02in /  1016.5hPa SE 5.0mph /  8km/h 9.0mph /  14.5km/h 87% 0.00in /  0mm
11:57 79.6 °F /  26.4 °C 75.1 °F /  23.9 °C 30.02in /  1016.5hPa ESE 8.0mph /  12.9km/h 11.0mph /  17.7km/h 86% 0.00in /  0mm
12:02 79.8 °F /  26.6 °C 74.9 °F /  23.8 °C 30.02in /  1016.5hPa SE 4.0mph /  6.4km/h 10.0mph /  16.1km/h 85% 0.00in /  0mm
12:07 80.1 °F /  26.7 °C 75.2 °F /  24 °C 30.02in /  1016.5hPa SE 4.0mph /  6.4km/h 9.0mph /  14.5km/h 85% 0.00in /  0mm
12:12 80.5 °F /  26.9 °C 76.3 °F /  24.6 °C 30.02in /  1016.5hPa SSE 7.0mph /  11.3km/h 8.0mph /  12.9km/h 87% 0.00in /  0mm
12:17 80.8 °F /  27.1 °C 76.2 °F /  24.6 °C 30.02in /  1016.5hPa SE 4.0mph /  6.4km/h 8.0mph /  12.9km/h 86% 0.00in /  0mm
12:22 81.3 °F /  27.4 °C 75.3 °F /  24.1 °C 30.02in /  1016.5hPa ESE 6.0mph /  9.7km/h 8.0mph /  12.9km/h 82% 0.00in /  0mm
12:27 81.2 °F /  27.3 °C 75.6 °F /  24.2 °C 30.02in /  1016.5hPa SE 6.0mph /  9.7km/h 10.0mph /  16.1km/h 83% 0.00in /  0mm
12:32 81.7 °F /  27.6 °C 76.8 °F /  24.9 °C 30.01in /  1016.1hPa SSW 6.0mph /  9.7km/h 8.0mph /  12.9km/h 85% 0.00in /  0mm
12:37 82.3 °F /  27.9 °C 76.6 °F /  24.8 °C 30.01in /  1016.1hPa SE 6.0mph /  9.7km/h 7.0mph /  11.3km/h 83% 0.00in /  0mm
12:42 82.2 °F /  27.9 °C 76.2 °F /  24.6 °C 30.01in /  1016.1hPa SE 6.0mph /  9.7km/h 10.0mph /  16.1km/h 82% 0.00in /  0mm
12:48 82.3 °F /  27.9 °C 76.6 °F /  24.8 °C 30.01in /  1016.1hPa SSE 8.0mph /  12.9km/h 9.0mph /  14.5km/h 83% 0.00in /  0mm
12:53 82.5 °F /  28.1 °C 76.4 °F /  24.7 °C 30.01in /  1016.1hPa SE 7.0mph /  11.3km/h 9.0mph /  14.5km/h 82% 0.00in /  0mm
12:58 82.6 °F /  28.1 °C 76.9 °F /  24.9 °C 30.00in /  1015.8hPa SSW 6.0mph /  9.7km/h 9.0mph /  14.5km/h 83% 0.00in /  0mm
13:03 83.0 °F /  28.3 °C 76.9 °F /  24.9 °C 30.00in /  1015.8hPa SE 3.0mph /  4.8km/h 8.0mph /  12.9km/h 82% 0.00in /  0mm
13:08 83.3 °F /  28.5 °C 76.9 °F /  24.9 °C 30.00in /  1015.8hPa SE 8.0mph /  12.9km/h 9.0mph /  14.5km/h 81% 0.00in /  0mm
13:13 83.1 °F /  28.4 °C 76.3 °F /  24.6 °C 29.99in /  1015.5hPa South 6.0mph /  9.7km/h 11.0mph /  17.7km/h 80% 0.00in /  0mm
13:18 83.4 °F /  28.6 °C 77.0 °F /  25 °C 29.99in /  1015.5hPa SE 7.0mph /  11.3km/h 8.0mph /  12.9km/h 81% 0.00in /  0mm
13:23 83.4 °F /  28.6 °C 77.3 °F /  25.2 °C 29.99in /  1015.5hPa South 4.0mph /  6.4km/h 10.0mph /  16.1km/h 82% 0.00in /  0mm
13:28 83.8 °F /  28.8 °C 76.6 °F /  24.8 °C 29.99in /  1015.5hPa SE 5.0mph /  8km/h 8.0mph /  12.9km/h 79% 0.00in /  0mm
13:33 84.4 °F /  29.1 °C 77.2 °F /  25.1 °C 29.99in /  1015.5hPa West 6.0mph /  9.7km/h 7.0mph /  11.3km/h 79% 0.00in /  0mm
13:38 84.9 °F /  29.4 °C 78.0 °F /  25.6 °C 29.99in /  1015.5hPa SSE 7.0mph /  11.3km/h 8.0mph /  12.9km/h 80% 0.00in /  0mm
13:43 84.6 °F /  29.2 °C 77.8 °F /  25.4 °C 29.98in /  1015.1hPa SE 7.0mph /  11.3km/h 8.0mph /  12.9km/h 80% 0.00in /  0mm
13:48 84.5 °F /  29.2 °C 76.9 °F /  24.9 °C 29.98in /  1015.1hPa ESE 8.0mph /  12.9km/h 10.0mph /  16.1km/h 78% 0.00in /  0mm
13:53 84.6 °F /  29.2 °C 77.4 °F /  25.2 °C 29.98in /  1015.1hPa SE 8.0mph /  12.9km/h 10.0mph /  16.1km/h 79% 0.00in /  0mm
13:59 84.6 °F /  29.2 °C 76.6 °F /  24.8 °C 29.98in /  1015.1hPa ESE 4.0mph /  6.4km/h 6.0mph /  9.7km/h 77% 0.00in /  0mm
14:04 85.2 °F /  29.6 °C 77.6 °F /  25.3 °C 29.98in /  1015.1hPa SSW 4.0mph /  6.4km/h 8.0mph /  12.9km/h 78% 0.00in /  0mm
14:09 85.5 °F /  29.7 °C 77.1 °F /  25.1 °C 29.97in /  1014.8hPa SE 7.0mph /  11.3km/h 7.0mph /  11.3km/h 76% 0.00in /  0mm
14:14 85.8 °F /  29.9 °C 77.8 °F /  25.4 °C 29.97in /  1014.8hPa South 5.0mph /  8km/h 9.0mph /  14.5km/h 77% 0.00in /  0mm
14:19 86.2 °F /  30.1 °C 77.8 °F /  25.4 °C 29.97in /  1014.8hPa SSE 6.0mph /  9.7km/h 8.0mph /  12.9km/h 76% 0.00in /  0mm
14:24 86.3 °F /  30.2 °C 78.2 °F /  25.7 °C 29.97in /  1014.8hPa SSE 2.0mph /  3.2km/h 7.0mph /  11.3km/h 77% 0.00in /  0mm
14:29 86.6 °F /  30.3 °C 78.1 °F /  25.6 °C 29.97in /  1014.8hPa SE 6.0mph /  9.7km/h 9.0mph /  14.5km/h 76% 0.00in /  0mm
14:34 86.6 °F /  30.3 °C 77.7 °F /  25.4 °C 29.97in /  1014.8hPa SSE 6.0mph /  9.7km/h 9.0mph /  14.5km/h 75% 0.00in /  0mm
14:39 87.2 °F /  30.7 °C 78.7 °F /  25.9 °C 29.96in /  1014.4hPa South 6.0mph /  9.7km/h 9.0mph /  14.5km/h 76% 0.00in /  0mm
14:44 87.2 °F /  30.7 °C 78.3 °F /  25.7 °C 29.96in /  1014.4hPa SSE 10.0mph /  16.1km/h 10.0mph /  16.1km/h 75% 0.00in /  0mm
14:49 87.3 °F /  30.7 °C 78.4 °F /  25.8 °C 29.96in /  1014.4hPa SSW 3.0mph /  4.8km/h 8.0mph /  12.9km/h 75% 0.00in /  0mm
14:54 87.5 °F /  30.8 °C 78.6 °F /  25.9 °C 29.96in /  1014.4hPa ESE 7.0mph /  11.3km/h 8.0mph /  12.9km/h 75% 0.00in /  0mm
14:59 87.5 °F /  30.8 °C 78.2 °F /  25.7 °C 29.96in /  1014.4hPa South 7.0mph /  11.3km/h 11.0mph /  17.7km/h 74% 0.00in /  0mm
15:04 87.5 °F /  30.8 °C 78.6 °F /  25.9 °C 29.95in /  1014.1hPa SE 10.0mph /  16.1km/h 12.0mph /  19.3km/h 75% 0.00in /  0mm
15:09 87.7 °F /  30.9 °C 78.0 °F /  25.6 °C 29.95in /  1014.1hPa SSE 6.0mph /  9.7km/h 11.0mph /  17.7km/h 73% 0.00in /  0mm
15:14 88.1 °F /  31.2 °C 79.2 °F /  26.2 °C 29.95in /  1014.1hPa WSW 4.0mph /  6.4km/h 8.0mph /  12.9km/h 75% 0.00in /  0mm
15:19 88.4 °F /  31.3 °C 78.7 °F /  25.9 °C 29.95in /  1014.1hPa SW 7.0mph /  11.3km/h 8.0mph /  12.9km/h 73% 0.00in /  0mm
15:24 88.7 °F /  31.5 °C 79.8 °F /  26.6 °C 29.95in /  1014.1hPa SSW 6.0mph /  9.7km/h 7.0mph /  11.3km/h 75% 0.00in /  0mm
15:29 88.8 °F /  31.6 °C 79.4 °F /  26.3 °C 29.95in /  1014.1hPa SSW 4.0mph /  6.4km/h 10.0mph /  16.1km/h 74% 0.00in /  0mm
15:34 89.0 °F /  31.7 °C 78.4 °F /  25.8 °C 29.94in /  1013.8hPa South 3.0mph /  4.8km/h 8.0mph /  12.9km/h 71% 0.00in /  0mm
15:39 89.1 °F /  31.7 °C 78.0 °F /  25.6 °C 29.94in /  1013.8hPa WSW 6.0mph /  9.7km/h 7.0mph /  11.3km/h 70% 0.00in /  0mm
15:44 89.4 °F /  31.9 °C 78.8 °F /  26 °C 29.94in /  1013.8hPa SSW 10.0mph /  16.1km/h 10.0mph /  16.1km/h 71% 0.00in /  0mm
15:49 89.4 °F /  31.9 °C 78.3 °F /  25.7 °C 29.94in /  1013.8hPa WNW 3.0mph /  4.8km/h 5.0mph /  8km/h 70% 0.00in /  0mm
15:54 89.5 °F /  31.9 °C 78.4 °F /  25.8 °C 29.94in /  1013.8hPa West 4.0mph /  6.4km/h 6.0mph /  9.7km/h 70% 0.00in /  0mm
15:59 89.6 °F /  32 °C 78.5 °F /  25.8 °C 29.94in /  1013.8hPa SE 8.0mph /  12.9km/h 8.0mph /  12.9km/h 70% 0.00in /  0mm
16:04 89.7 °F /  32.1 °C 78.6 °F /  25.9 °C 29.93in /  1013.4hPa SW 6.0mph /  9.7km/h 7.0mph /  11.3km/h 70% 0.00in /  0mm
16:09 89.7 °F /  32.1 °C 78.6 °F /  25.9 °C 29.93in /  1013.4hPa SE 4.0mph /  6.4km/h 7.0mph /  11.3km/h 70% 0.00in /  0mm
16:14 89.9 °F /  32.2 °C 79.2 °F /  26.2 °C 29.93in /  1013.4hPa SSW 7.0mph /  11.3km/h 10.0mph /  16.1km/h 71% 0.00in /  0mm
16:20 90.0 °F /  32.2 °C 78.5 °F /  25.8 °C 29.93in /  1013.4hPa SE 4.0mph /  6.4km/h 6.0mph /  9.7km/h 69% 0.00in /  0mm
16:24 89.9 °F /  32.2 °C 78.4 °F /  25.8 °C 29.93in /  1013.4hPa SSE 5.0mph /  8km/h 11.0mph /  17.7km/h 69% 0.00in /  0mm
16:29 89.9 °F /  32.2 °C 78.4 °F /  25.8 °C 29.92in /  1013.1hPa South 6.0mph /  9.7km/h 8.0mph /  12.9km/h 69% 0.00in /  0mm
16:34 90.1 °F /  32.3 °C 79.0 °F /  26.1 °C 29.92in /  1013.1hPa SSW 4.0mph /  6.4km/h 8.0mph /  12.9km/h 70% 0.00in /  0mm
16:40 90.2 °F /  32.3 °C 78.7 °F /  25.9 °C 29.92in /  1013.1hPa SW 6.0mph /  9.7km/h 7.0mph /  11.3km/h 69% 0.00in /  0mm
16:45 90.1 °F /  32.3 °C 79.4 °F /  26.3 °C 29.92in /  1013.1hPa SSW 2.0mph /  3.2km/h 7.0mph /  11.3km/h 71% 0.00in /  0mm
16:50 90.1 °F /  32.3 °C 79.0 °F /  26.1 °C 29.92in /  1013.1hPa SSW 5.0mph /  8km/h 5.0mph /  8km/h 70% 0.00in /  0mm
16:55 90.1 °F /  32.3 °C 79.0 °F /  26.1 °C 29.92in /  1013.1hPa SSE 5.0mph /  8km/h 7.0mph /  11.3km/h 70% 0.00in /  0mm
17:00 89.6 °F /  32 °C 79.4 °F /  26.3 °C 29.92in /  1013.1hPa SSW 2.0mph /  3.2km/h 6.0mph /  9.7km/h 72% 0.00in /  0mm
17:05 90.0 °F /  32.2 °C 78.9 °F /  26.1 °C 29.92in /  1013.1hPa SSW 3.0mph /  4.8km/h 7.0mph /  11.3km/h 70% 0.00in /  0mm
17:10 90.4 °F /  32.4 °C 78.8 °F /  26 °C 29.91in /  1012.8hPa SW 3.0mph /  4.8km/h 4.0mph /  6.4km/h 69% 0.00in /  0mm
17:15 90.7 °F /  32.6 °C 78.7 °F /  25.9 °C 29.91in /  1012.8hPa SW 6.0mph /  9.7km/h 8.0mph /  12.9km/h 68% 0.00in /  0mm
17:20 90.7 °F /  32.6 °C 78.7 °F /  25.9 °C 29.91in /  1012.8hPa West 4.0mph /  6.4km/h 8.0mph /  12.9km/h 68% 0.00in /  0mm
17:25 90.5 °F /  32.5 °C 79.4 °F /  26.3 °C 29.91in /  1012.8hPa SW 4.0mph /  6.4km/h 8.0mph /  12.9km/h 70% 0.00in /  0mm
17:30 90.8 °F /  32.7 °C 78.3 °F /  25.7 °C 29.91in /  1012.8hPa WSW 5.0mph /  8km/h 10.0mph /  16.1km/h 67% 0.00in /  0mm
17:35 90.9 °F /  32.7 °C 78.4 °F /  25.8 °C 29.90in /  1012.4hPa South 5.0mph /  8km/h 7.0mph /  11.3km/h 67% 0.00in /  0mm
17:40 90.9 °F /  32.7 °C 78.0 °F /  25.6 °C 29.90in /  1012.4hPa South 4.0mph /  6.4km/h 10.0mph /  16.1km/h 66% 0.00in /  0mm
17:45 90.9 °F /  32.7 °C 78.4 °F /  25.8 °C 29.90in /  1012.4hPa South 7.0mph /  11.3km/h 10.0mph /  16.1km/h 67% 0.00in /  0mm
17:50 90.9 °F /  32.7 °C 78.4 °F /  25.8 °C 29.90in /  1012.4hPa SSW 3.0mph /  4.8km/h 8.0mph /  12.9km/h 67% 0.00in /  0mm
17:55 91.0 °F /  32.8 °C 79.4 °F /  26.3 °C 29.90in /  1012.4hPa SW 4.0mph /  6.4km/h 7.0mph /  11.3km/h 69% 0.00in /  0mm
18:00 90.7 °F /  32.6 °C 78.7 °F /  25.9 °C 29.90in /  1012.4hPa SW 4.0mph /  6.4km/h 6.0mph /  9.7km/h 68% 0.00in /  0mm
18:05 90.9 °F /  32.7 °C 78.0 °F /  25.6 °C 29.89in /  1012.1hPa SSE 6.0mph /  9.7km/h 8.0mph /  12.9km/h 66% 0.00in /  0mm
18:10 90.7 °F /  32.6 °C 77.8 °F /  25.4 °C 29.88in /  1011.7hPa SSE 6.0mph /  9.7km/h 9.0mph /  14.5km/h 66% 0.00in /  0mm
18:15 90.7 °F /  32.6 °C 77.3 °F /  25.2 °C 29.88in /  1011.7hPa SW 6.0mph /  9.7km/h 10.0mph /  16.1km/h 65% 0.00in /  0mm
18:20 90.8 °F /  32.7 °C 78.3 °F /  25.7 °C 29.88in /  1011.7hPa SSW 5.0mph /  8km/h 9.0mph /  14.5km/h 67% 0.00in /  0mm
18:25 90.9 °F /  32.7 °C 78.4 °F /  25.8 °C 29.88in /  1011.7hPa SSW 3.0mph /  4.8km/h 6.0mph /  9.7km/h 67% 0.00in /  0mm
18:30 91.0 °F /  32.8 °C 77.6 °F /  25.3 °C 29.88in /  1011.7hPa SSW 4.0mph /  6.4km/h 8.0mph /  12.9km/h 65% 0.00in /  0mm
18:35 90.8 °F /  32.7 °C 78.3 °F /  25.7 °C 29.88in /  1011.7hPa SW 5.0mph /  8km/h 7.0mph /  11.3km/h 67% 0.00in /  0mm
18:40 90.6 °F /  32.6 °C 78.1 °F /  25.6 °C 29.88in /  1011.7hPa SW 3.0mph /  4.8km/h 6.0mph /  9.7km/h 67% 0.00in /  0mm
18:45 90.5 °F /  32.5 °C 78.1 °F /  25.6 °C 29.88in /  1011.7hPa South 7.0mph /  11.3km/h 7.0mph /  11.3km/h 67% 0.00in /  0mm
18:50 90.5 °F /  32.5 °C 78.1 °F /  25.6 °C 29.88in /  1011.7hPa SSW 6.0mph /  9.7km/h 8.0mph /  12.9km/h 67% 0.00in /  0mm
18:55 90.3 °F /  32.4 °C 78.8 °F /  26 °C 29.87in /  1011.4hPa SSW 2.0mph /  3.2km/h 6.0mph /  9.7km/h 69% 0.00in /  0mm
19:01 90.4 °F /  32.4 °C 78.8 °F /  26 °C 29.88in /  1011.7hPa SSW 3.0mph /  4.8km/h 5.0mph /  8km/h 69% 0.00in /  0mm
19:06 90.0 °F /  32.2 °C 78.5 °F /  25.8 °C 29.88in /  1011.7hPa SSW 4.0mph /  6.4km/h 9.0mph /  14.5km/h 69% 0.00in /  0mm
19:11 89.8 °F /  32.1 °C 78.7 °F /  25.9 °C 29.87in /  1011.4hPa SSW 5.0mph /  8km/h 6.0mph /  9.7km/h 70% 0.00in /  0mm
19:16 89.6 °F /  32 °C 79.4 °F /  26.3 °C 29.87in /  1011.4hPa SW 1.0mph /  1.6km/h 6.0mph /  9.7km/h 72% 0.00in /  0mm
19:21 89.7 °F /  32.1 °C 79.1 °F /  26.2 °C 29.86in /  1011.1hPa SW 4.0mph /  6.4km/h 5.0mph /  8km/h 71% 0.00in /  0mm
19:26 89.5 °F /  31.9 °C 79.3 °F /  26.3 °C 29.86in /  1011.1hPa SSW 2.0mph /  3.2km/h 5.0mph /  8km/h 72% 0.00in /  0mm
19:31 89.6 °F /  32 °C 78.5 °F /  25.8 °C 29.87in /  1011.4hPa SSW 6.0mph /  9.7km/h 7.0mph /  11.3km/h 70% 0.00in /  0mm
19:36 89.6 °F /  32 °C 78.5 °F /  25.8 °C 29.87in /  1011.4hPa South 3.0mph /  4.8km/h 8.0mph /  12.9km/h 70% 0.00in /  0mm
19:41 89.5 °F /  31.9 °C 78.9 °F /  26.1 °C 29.87in /  1011.4hPa SSW 6.0mph /  9.7km/h 7.0mph /  11.3km/h 71% 0.00in /  0mm
19:46 89.3 °F /  31.8 °C 79.1 °F /  26.2 °C 29.87in /  1011.4hPa SW 4.0mph /  6.4km/h 8.0mph /  12.9km/h 72% 0.00in /  0mm
19:51 89.0 °F /  31.7 °C 78.8 °F /  26 °C 29.87in /  1011.4hPa SSW 5.0mph /  8km/h 7.0mph /  11.3km/h 72% 0.00in /  0mm
19:57 88.8 °F /  31.6 °C 79.0 °F /  26.1 °C 29.87in /  1011.4hPa South 3.0mph /  4.8km/h 5.0mph /  8km/h 73% 0.00in /  0mm
20:02 88.8 °F /  31.6 °C 79.0 °F /  26.1 °C 29.86in /  1011.1hPa SSW 3.0mph /  4.8km/h 6.0mph /  9.7km/h 73% 0.00in /  0mm
20:07 88.7 °F /  31.5 °C 78.9 °F /  26.1 °C 29.86in /  1011.1hPa South 1.0mph /  1.6km/h 5.0mph /  8km/h 73% 0.00in /  0mm
20:12 88.5 °F /  31.4 °C 78.7 °F /  25.9 °C 29.86in /  1011.1hPa South 4.0mph /  6.4km/h 5.0mph /  8km/h 73% 0.00in /  0mm
20:17 88.1 °F /  31.2 °C 78.8 °F /  26 °C 29.87in /  1011.4hPa SW 4.0mph /  6.4km/h 6.0mph /  9.7km/h 74% 0.00in /  0mm
20:22 87.6 °F /  30.9 °C 78.3 °F /  25.7 °C 29.87in /  1011.4hPa SSE 4.0mph /  6.4km/h 9.0mph /  14.5km/h 74% 0.00in /  0mm
20:27 87.1 °F /  30.6 °C 78.2 °F /  25.7 °C 29.87in /  1011.4hPa SSW 6.0mph /  9.7km/h 9.0mph /  14.5km/h 75% 0.00in /  0mm
20:32 86.5 °F /  30.3 °C 78.0 °F /  25.6 °C 29.87in /  1011.4hPa SSW 4.0mph /  6.4km/h 5.0mph /  8km/h 76% 0.00in /  0mm
20:37 86.0 °F /  30 °C 77.6 °F /  25.3 °C 29.88in /  1011.7hPa SSE 7.0mph /  11.3km/h 8.0mph /  12.9km/h 76% 0.00in /  0mm
20:42 85.6 °F /  29.8 °C 77.6 °F /  25.3 °C 29.88in /  1011.7hPa South 4.0mph /  6.4km/h 7.0mph /  11.3km/h 77% 0.00in /  0mm
20:47 85.2 °F /  29.6 °C 77.6 °F /  25.3 °C 29.89in /  1012.1hPa SSW 3.0mph /  4.8km/h 7.0mph /  11.3km/h 78% 0.00in /  0mm
20:52 84.8 °F /  29.3 °C 77.2 °F /  25.1 °C 29.90in /  1012.4hPa SSW 3.0mph /  4.8km/h 9.0mph /  14.5km/h 78% 0.00in /  0mm
20:57 84.6 °F /  29.2 °C 77.4 °F /  25.2 °C 29.90in /  1012.4hPa South 4.0mph /  6.4km/h 5.0mph /  8km/h 79% 0.00in /  0mm
21:02 84.3 °F /  29.1 °C 77.1 °F /  25.1 °C 29.90in /  1012.4hPa SSW 4.0mph /  6.4km/h 6.0mph /  9.7km/h 79% 0.00in /  0mm
21:07 84.1 °F /  28.9 °C 76.5 °F /  24.7 °C 29.90in /  1012.4hPa SW 3.0mph /  4.8km/h 7.0mph /  11.3km/h 78% 0.00in /  0mm
21:12 83.9 °F /  28.8 °C 76.3 °F /  24.6 °C 29.90in /  1012.4hPa SW 4.0mph /  6.4km/h 4.0mph /  6.4km/h 78% 0.00in /  0mm
21:17 83.6 °F /  28.7 °C 75.6 °F /  24.2 °C 29.91in /  1012.8hPa South 2.0mph /  3.2km/h 6.0mph /  9.7km/h 77% 0.00in /  0mm
21:22 83.4 °F /  28.6 °C 75.1 °F /  23.9 °C 29.91in /  1012.8hPa SSW 2.0mph /  3.2km/h 5.0mph /  8km/h 76% 0.00in /  0mm
21:27 83.3 °F /  28.5 °C 74.2 °F /  23.4 °C 29.90in /  1012.4hPa South 3.0mph /  4.8km/h 5.0mph /  8km/h 74% 0.00in /  0mm
21:32 83.1 °F /  28.4 °C 74.4 °F /  23.6 °C 29.91in /  1012.8hPa South 2.0mph /  3.2km/h 5.0mph /  8km/h 75% 0.00in /  0mm
21:37 82.6 °F /  28.1 °C 73.5 °F /  23.1 °C 29.92in /  1013.1hPa South 3.0mph /  4.8km/h 5.0mph /  8km/h 74% 0.00in /  0mm
21:42 82.3 °F /  27.9 °C 72.4 °F /  22.4 °C 29.92in /  1013.1hPa SSW 4.0mph /  6.4km/h 6.0mph /  9.7km/h 72% 0.00in /  0mm
21:47 82.0 °F /  27.8 °C 72.5 °F /  22.5 °C 29.91in /  1012.8hPa SSW 5.0mph /  8km/h 6.0mph /  9.7km/h 73% 0.00in /  0mm
21:52 81.6 °F /  27.6 °C 72.5 °F /  22.5 °C 29.91in /  1012.8hPa South 3.0mph /  4.8km/h 5.0mph /  8km/h 74% 0.00in /  0mm
21:57 81.4 °F /  27.4 °C 72.7 °F /  22.6 °C 29.91in /  1012.8hPa SSW 4.0mph /  6.4km/h 6.0mph /  9.7km/h 75% 0.00in /  0mm
22:02 81.1 °F /  27.3 °C 72.8 °F /  22.7 °C 29.92in /  1013.1hPa SW 4.0mph /  6.4km/h 4.0mph /  6.4km/h 76% 0.00in /  0mm
22:07 80.8 °F /  27.1 °C 72.9 °F /  22.7 °C 29.91in /  1012.8hPa SSW 3.0mph /  4.8km/h 5.0mph /  8km/h 77% 0.00in /  0mm
22:12 80.6 °F /  27 °C 73.1 °F /  22.8 °C 29.91in /  1012.8hPa SE 3.0mph /  4.8km/h 9.0mph /  14.5km/h 78% 0.00in /  0mm
22:17 80.3 °F /  26.8 °C 72.8 °F /  22.7 °C 29.91in /  1012.8hPa SSE 4.0mph /  6.4km/h 6.0mph /  9.7km/h 78% 0.00in /  0mm
22:22 80.0 °F /  26.7 °C 72.9 °F /  22.7 °C 29.91in /  1012.8hPa SSE 5.0mph /  8km/h 7.0mph /  11.3km/h 79% 0.00in /  0mm
22:27 79.8 °F /  26.6 °C 73.1 °F /  22.8 °C 29.91in /  1012.8hPa SSE 2.0mph /  3.2km/h 6.0mph /  9.7km/h 80% 0.00in /  0mm
22:32 79.7 °F /  26.5 °C 73.4 °F /  23 °C 29.91in /  1012.8hPa SSE 7.0mph /  11.3km/h 7.0mph /  11.3km/h 81% 0.00in /  0mm
22:37 79.6 °F /  26.4 °C 73.6 °F /  23.1 °C 29.91in /  1012.8hPa SE 2.0mph /  3.2km/h 7.0mph /  11.3km/h 82% 0.00in /  0mm
22:42 79.4 °F /  26.3 °C 73.8 °F /  23.2 °C 29.91in /  1012.8hPa South 2.0mph /  3.2km/h 6.0mph /  9.7km/h 83% 0.00in /  0mm
22:47 79.3 °F /  26.3 °C 74.1 °F /  23.4 °C 29.91in /  1012.8hPa South 5.0mph /  8km/h 8.0mph /  12.9km/h 84% 0.00in /  0mm
22:52 79.2 °F /  26.2 °C 73.9 °F /  23.3 °C 29.91in /  1012.8hPa South 2.0mph /  3.2km/h 6.0mph /  9.7km/h 84% 0.00in /  0mm
22:57 79.1 °F /  26.2 °C 74.2 °F /  23.4 °C 29.92in /  1013.1hPa SW 3.0mph /  4.8km/h 5.0mph /  8km/h 85% 0.00in /  0mm
23:03 79.0 °F /  26.1 °C 74.5 °F /  23.6 °C 29.92in /  1013.1hPa SSW 4.0mph /  6.4km/h 6.0mph /  9.7km/h 86% 0.00in /  0mm
23:08 78.9 °F /  26.1 °C 74.4 °F /  23.6 °C 29.92in /  1013.1hPa SW 2.0mph /  3.2km/h 5.0mph /  8km/h 86% 0.00in /  0mm
23:13 78.8 °F /  26 °C 74.6 °F /  23.7 °C 29.92in /  1013.1hPa SW 1.0mph /  1.6km/h 2.0mph /  3.2km/h 87% 0.00in /  0mm
23:18 78.6 °F /  25.9 °C 74.4 °F /  23.6 °C 29.92in /  1013.1hPa West 2.0mph /  3.2km/h 3.0mph /  4.8km/h 87% 0.00in /  0mm
23:23 78.6 °F /  25.9 °C 74.8 °F /  23.8 °C 29.92in /  1013.1hPa SW 3.0mph /  4.8km/h 4.0mph /  6.4km/h 88% 0.00in /  0mm
23:28 78.6 °F /  25.9 °C 74.8 °F /  23.8 °C 29.92in /  1013.1hPa SSE 2.0mph /  3.2km/h 6.0mph /  9.7km/h 88% 0.00in /  0mm
23:33 78.5 °F /  25.8 °C 74.7 °F /  23.7 °C 29.91in /  1012.8hPa South 2.0mph /  3.2km/h 5.0mph /  8km/h 88% 0.00in /  0mm
23:38 78.3 °F /  25.7 °C 74.8 °F /  23.8 °C 29.91in /  1012.8hPa SSE 2.0mph /  3.2km/h 5.0mph /  8km/h 89% 0.00in /  0mm
23:43 78.2 °F /  25.7 °C 74.7 °F /  23.7 °C 29.90in /  1012.4hPa SSE 4.0mph /  6.4km/h 4.0mph /  6.4km/h 89% 0.00in /  0mm
23:48 78.1 °F /  25.6 °C 74.9 °F /  23.8 °C 29.90in /  1012.4hPa South 6.0mph /  9.7km/h 6.0mph /  9.7km/h 90% 0.00in /  0mm
23:53 78.1 °F /  25.6 °C 74.9 °F /  23.8 °C 29.90in /  1012.4hPa SSW 4.0mph /  6.4km/h 5.0mph /  8km/h 90% 0.00in /  0mm
23:58 78.1 °F /  25.6 °C 74.9 °F /  23.8 °C 29.90in /  1012.4hPa South 2.0mph /  3.2km/h 6.0mph /  9.7km/h 90% 0.00in /  0mm
Compliments of Weather Underground